JBU513 KRSW-KHPN
Flight info
| Callsign | JBU513 |
|---|---|
| Flight time | N/A |
| Altitude | 35000 |
| Route | CSHEL8 VIYAP Q87 JROSS JOHAR Q109 DFENC SAWED Q108 SIE BOUNO5 |
| Aircraft | A320/M-VGDW/C |
Departure
| Time | 2026-04-30 13:51 |
|---|---|
| Airport | Southwest Florida International Airport (KRSW) |
Arrival
| Time | N/A |
|---|---|
| Airport | Westchester County Airport (KHPN) |
| Time | Latitude | Longitude | Altitude | Speed | Heading |
|---|---|---|---|---|---|
| 2026-04-30 13:33 | 26.52965 | -81.75541 | 44 ft | 0 kts | 122° |
| 2026-04-30 13:41 | 26.52974 | -81.75557 | 41 ft | 4 kts | 122° |
| 2026-04-30 13:41 | 26.52988 | -81.75583 | 39 ft | 4 kts | 120° |
| 2026-04-30 13:42 | 26.52999 | -81.75609 | 41 ft | 4 kts | 95° |
| 2026-04-30 13:42 | 26.52998 | -81.75625 | 41 ft | 2 kts | 12° |
| 2026-04-30 13:42 | 26.52997 | -81.75626 | 41 ft | 0 kts | 11° |
| 2026-04-30 13:44 | 26.53023 | -81.75620 | 42 ft | 6 kts | 10° |
| 2026-04-30 13:44 | 26.53068 | -81.75612 | 44 ft | 7 kts | 9° |
| 2026-04-30 13:45 | 26.53203 | -81.75585 | 44 ft | 12 kts | 18° |
| 2026-04-30 13:45 | 26.53232 | -81.75499 | 42 ft | 14 kts | 97° |
| 2026-04-30 13:45 | 26.53215 | -81.75384 | 44 ft | 16 kts | 99° |
| 2026-04-30 13:46 | 26.53292 | -81.75356 | 44 ft | 16 kts | 327° |
| 2026-04-30 13:46 | 26.53385 | -81.75431 | 44 ft | 17 kts | 324° |
| 2026-04-30 13:46 | 26.53493 | -81.75484 | 44 ft | 17 kts | 26° |
| 2026-04-30 13:46 | 26.53571 | -81.75376 | 44 ft | 19 kts | 55° |
| 2026-04-30 13:47 | 26.53651 | -81.75253 | 44 ft | 20 kts | 55° |
| 2026-04-30 13:47 | 26.53738 | -81.75120 | 44 ft | 22 kts | 54° |
| 2026-04-30 13:47 | 26.53830 | -81.74978 | 45 ft | 23 kts | 53° |
| 2026-04-30 13:47 | 26.53928 | -81.74828 | 42 ft | 25 kts | 54° |
| 2026-04-30 13:48 | 26.54031 | -81.74668 | 44 ft | 26 kts | 53° |
| 2026-04-30 13:48 | 26.54142 | -81.74500 | 45 ft | 28 kts | 53° |
| 2026-04-30 13:48 | 26.54238 | -81.74354 | 44 ft | 22 kts | 53° |
| 2026-04-30 13:48 | 26.54333 | -81.74207 | 42 ft | 24 kts | 55° |
| 2026-04-30 13:49 | 26.54432 | -81.74054 | 45 ft | 24 kts | 54° |
| 2026-04-30 13:49 | 26.54529 | -81.74008 | 45 ft | 16 kts | 329° |
| 2026-04-30 13:49 | 26.54536 | -81.74111 | 42 ft | 17 kts | 230° |
| 2026-04-30 13:49 | 26.54459 | -81.74224 | 43 ft | 22 kts | 233° |
| 2026-04-30 13:50 | 26.54295 | -81.74473 | 44 ft | 69 kts | 234° |
| 2026-04-30 13:50 | 26.53306 | -81.75991 | 54 ft | 164 kts | 234° |
| 2026-04-30 13:50 | 26.52633 | -81.77036 | 570 ft | 163 kts | 234° |
| 2026-04-30 13:51 | 26.51976 | -81.78036 | 1206 ft | 159 kts | 234° |
| 2026-04-30 13:51 | 26.51286 | -81.79081 | 1472 ft | 177 kts | 235° |
| 2026-04-30 13:51 | 26.50578 | -81.80273 | 1848 ft | 190 kts | 238° |
| 2026-04-30 13:51 | 26.49897 | -81.81573 | 2337 ft | 200 kts | 245° |
| 2026-04-30 13:52 | 26.49497 | -81.83151 | 2623 ft | 221 kts | 262° |
| 2026-04-30 13:52 | 26.49387 | -81.84887 | 3329 ft | 226 kts | 268° |
| 2026-04-30 13:52 | 26.49698 | -81.86670 | 3731 ft | 250 kts | 298° |
| 2026-04-30 13:52 | 26.51000 | -81.88046 | 4222 ft | 270 kts | 330° |
| 2026-04-30 13:53 | 26.52750 | -81.88824 | 4944 ft | 277 kts | 342° |
| 2026-04-30 13:53 | 26.54627 | -81.89363 | 5752 ft | 280 kts | 345° |
| 2026-04-30 13:53 | 26.56529 | -81.89854 | 6534 ft | 281 kts | 345° |
| 2026-04-30 13:53 | 26.58438 | -81.90383 | 7258 ft | 283 kts | 343° |
| 2026-04-30 13:54 | 26.60341 | -81.90970 | 7987 ft | 284 kts | 341° |
| 2026-04-30 13:54 | 26.62254 | -81.91579 | 8704 ft | 287 kts | 345° |
| 2026-04-30 13:54 | 26.64256 | -81.91798 | 9401 ft | 293 kts | 358° |
| 2026-04-30 13:54 | 26.66300 | -81.91532 | 10071 ft | 298 kts | 5° |
| 2026-04-30 13:55 | 26.68380 | -81.91200 | 10333 ft | 316 kts | 4° |
| 2026-04-30 13:55 | 26.70660 | -81.90844 | 10461 ft | 337 kts | 4° |
| 2026-04-30 13:55 | 26.73047 | -81.90475 | 10591 ft | 356 kts | 5° |
| 2026-04-30 13:55 | 26.75512 | -81.90057 | 10918 ft | 368 kts | 9° |
| 2026-04-30 13:56 | 26.77979 | -81.89193 | 11469 ft | 375 kts | 20° |
| 2026-04-30 13:56 | 26.80307 | -81.87830 | 12069 ft | 380 kts | 26° |
| 2026-04-30 13:56 | 26.82603 | -81.86355 | 12684 ft | 381 kts | 26° |
| 2026-04-30 13:56 | 26.84915 | -81.84872 | 13293 ft | 383 kts | 25° |
| 2026-04-30 13:57 | 26.86092 | -81.84117 | 13601 ft | 384 kts | 25° |
| 2026-04-30 13:57 | 26.88249 | -81.82736 | 14112 ft | 385 kts | 25° |
| 2026-04-30 13:57 | 26.90587 | -81.81245 | 14631 ft | 388 kts | 25° |
| 2026-04-30 13:57 | 26.92938 | -81.79751 | 15128 ft | 390 kts | 25° |
| 2026-04-30 13:58 | 26.95337 | -81.78305 | 15621 ft | 393 kts | 23° |
| 2026-04-30 13:58 | 27.00385 | -81.75955 | 16612 ft | 392 kts | 8° |
| 2026-04-30 13:58 | 27.03084 | -81.75605 | 17124 ft | 390 kts | 357° |
| 2026-04-30 13:59 | 27.05790 | -81.75818 | 17648 ft | 390 kts | 347° |
| 2026-04-30 13:59 | 27.08418 | -81.76569 | 18165 ft | 391 kts | 340° |
| 2026-04-30 13:59 | 27.11030 | -81.77464 | 18631 ft | 394 kts | 340° |
| 2026-04-30 13:59 | 27.13665 | -81.78372 | 19075 ft | 397 kts | 340° |
| 2026-04-30 14:00 | 27.16283 | -81.79278 | 19500 ft | 400 kts | 340° |
| 2026-04-30 14:00 | 27.21645 | -81.81132 | 20367 ft | 405 kts | 340° |
| 2026-04-30 14:00 | 27.24349 | -81.82070 | 20772 ft | 408 kts | 340° |
| 2026-04-30 14:01 | 27.27075 | -81.83018 | 21148 ft | 411 kts | 340° |
| 2026-04-30 14:01 | 27.29817 | -81.83971 | 21518 ft | 414 kts | 340° |
| 2026-04-30 14:01 | 27.32577 | -81.84926 | 21898 ft | 416 kts | 340° |
| 2026-04-30 14:01 | 27.35354 | -81.85885 | 22259 ft | 418 kts | 340° |
| 2026-04-30 14:02 | 27.38144 | -81.86849 | 22600 ft | 421 kts | 340° |
| 2026-04-30 14:02 | 27.40950 | -81.87822 | 22934 ft | 423 kts | 340° |
| 2026-04-30 14:02 | 27.43774 | -81.88801 | 23261 ft | 425 kts | 340° |
| 2026-04-30 14:02 | 27.46610 | -81.89785 | 23576 ft | 427 kts | 340° |
| 2026-04-30 14:03 | 27.49421 | -81.90764 | 23833 ft | 429 kts | 340° |
| 2026-04-30 14:03 | 27.52273 | -81.91760 | 24101 ft | 430 kts | 340° |
| 2026-04-30 14:03 | 27.55139 | -81.92761 | 24379 ft | 432 kts | 340° |
| 2026-04-30 14:03 | 27.58020 | -81.93769 | 24640 ft | 433 kts | 340° |
| 2026-04-30 14:04 | 27.60906 | -81.94776 | 24897 ft | 435 kts | 340° |
| 2026-04-30 14:04 | 27.63807 | -81.95787 | 25154 ft | 436 kts | 340° |
| 2026-04-30 14:04 | 27.66714 | -81.96800 | 25415 ft | 438 kts | 340° |
| 2026-04-30 14:04 | 27.69625 | -81.97813 | 25758 ft | 437 kts | 340° |
| 2026-04-30 14:05 | 27.72523 | -81.98822 | 26153 ft | 436 kts | 340° |
| 2026-04-30 14:05 | 27.74442 | -81.99493 | 26415 ft | 435 kts | 340° |
| 2026-04-30 14:05 | 27.77331 | -82.00504 | 26810 ft | 434 kts | 340° |
| 2026-04-30 14:05 | 27.80209 | -82.01504 | 27195 ft | 433 kts | 340° |
| 2026-04-30 14:06 | 27.83093 | -82.02484 | 27605 ft | 431 kts | 341° |
| 2026-04-30 14:06 | 27.88403 | -82.04252 | 28627 ft | 423 kts | 340° |
| 2026-04-30 14:07 | 27.94014 | -82.06111 | 29627 ft | 418 kts | 340° |
| 2026-04-30 14:07 | 27.96798 | -82.07045 | 30095 ft | 416 kts | 340° |
| 2026-04-30 14:07 | 27.99564 | -82.07980 | 30497 ft | 414 kts | 340° |
| 2026-04-30 14:08 | 28.05014 | -82.09824 | 31310 ft | 410 kts | 340° |
| 2026-04-30 14:08 | 28.07753 | -82.10705 | 31712 ft | 409 kts | 344° |
| 2026-04-30 14:08 | 28.13421 | -82.11455 | 32519 ft | 409 kts | 351° |
| 2026-04-30 14:09 | 28.16253 | -82.11723 | 32968 ft | 407 kts | 350° |
| 2026-04-30 14:09 | 28.19060 | -82.11984 | 33416 ft | 404 kts | 350° |
| 2026-04-30 14:09 | 28.24632 | -82.12511 | 34205 ft | 399 kts | 350° |
| 2026-04-30 14:10 | 28.27402 | -82.12779 | 34526 ft | 398 kts | 350° |
| 2026-04-30 14:10 | 28.30156 | -82.13047 | 34829 ft | 397 kts | 350° |
| 2026-04-30 14:10 | 28.32911 | -82.13317 | 34969 ft | 397 kts | 350° |
| 2026-04-30 14:11 | 28.38457 | -82.13864 | 34998 ft | 409 kts | 350° |
| 2026-04-30 14:11 | 28.44197 | -82.14423 | 35014 ft | 416 kts | 350° |
| 2026-04-30 14:12 | 28.50033 | -82.13946 | 34996 ft | 431 kts | 9° |
| 2026-04-30 14:12 | 28.55788 | -82.11791 | 34991 ft | 435 kts | 12° |
| 2026-04-30 14:13 | 28.61534 | -82.09608 | 34989 ft | 435 kts | 12° |
| 2026-04-30 14:13 | 28.67283 | -82.07428 | 34990 ft | 436 kts | 12° |
| 2026-04-30 14:14 | 28.73040 | -82.05239 | 35020 ft | 436 kts | 11° |
| 2026-04-30 14:14 | 28.78815 | -82.03039 | 34989 ft | 439 kts | 11° |
| 2026-04-30 14:15 | 28.84607 | -82.00817 | 34978 ft | 440 kts | 11° |
| 2026-04-30 14:15 | 28.90418 | -81.98589 | 34979 ft | 441 kts | 11° |
| 2026-04-30 14:16 | 28.96242 | -81.96354 | 34982 ft | 442 kts | 11° |
| 2026-04-30 14:16 | 29.02077 | -81.94120 | 35009 ft | 442 kts | 11° |
| 2026-04-30 14:17 | 29.07911 | -81.91883 | 35009 ft | 442 kts | 11° |
| 2026-04-30 14:17 | 29.13741 | -81.89644 | 35009 ft | 442 kts | 11° |
| 2026-04-30 14:18 | 29.19534 | -81.87408 | 35008 ft | 442 kts | 11° |
| 2026-04-30 14:18 | 29.28307 | -81.84027 | 35006 ft | 441 kts | 11° |
| 2026-04-30 14:19 | 29.36981 | -81.80682 | 35013 ft | 439 kts | 11° |
| 2026-04-30 14:20 | 29.42764 | -81.78443 | 35007 ft | 438 kts | 11° |
| 2026-04-30 14:20 | 29.51433 | -81.75095 | 34998 ft | 438 kts | 11° |
| 2026-04-30 14:21 | 29.57203 | -81.72861 | 35025 ft | 437 kts | 10° |
| 2026-04-30 14:22 | 29.65853 | -81.69488 | 34989 ft | 437 kts | 11° |
| 2026-04-30 14:22 | 29.74500 | -81.66159 | 34982 ft | 436 kts | 10° |
| 2026-04-30 14:23 | 29.86013 | -81.61901 | 35012 ft | 436 kts | 9° |
| 2026-04-30 14:24 | 29.94650 | -81.58668 | 34995 ft | 434 kts | 9° |
| 2026-04-30 14:25 | 30.06136 | -81.54343 | 34982 ft | 433 kts | 9° |
| 2026-04-30 14:26 | 30.14724 | -81.51118 | 34966 ft | 430 kts | 8° |
| 2026-04-30 14:27 | 30.23219 | -81.47921 | 34957 ft | 427 kts | 8° |
| 2026-04-30 14:27 | 30.28849 | -81.45795 | 34957 ft | 428 kts | 8° |
| 2026-04-30 14:28 | 30.37344 | -81.42581 | 34953 ft | 428 kts | 8° |
| 2026-04-30 14:28 | 30.43019 | -81.40433 | 34956 ft | 428 kts | 8° |
| 2026-04-30 14:29 | 30.48729 | -81.39481 | 34958 ft | 406 kts | 349° |
| 2026-04-30 14:29 | 30.53409 | -81.39746 | 34968 ft | 405 kts | 349° |
| 2026-04-30 14:31 | 30.68471 | -81.40536 | 35003 ft | 405 kts | 349° |
| 2026-04-30 14:31 | 30.76828 | -81.40975 | 34971 ft | 402 kts | 349° |
| 2026-04-30 14:32 | 30.85212 | -81.41428 | 34965 ft | 402 kts | 349° |
| 2026-04-30 14:33 | 30.90805 | -81.41725 | 34962 ft | 402 kts | 349° |
| 2026-04-30 14:33 | 30.99189 | -81.42169 | 34957 ft | 400 kts | 349° |
| 2026-04-30 14:34 | 31.04749 | -81.42467 | 34946 ft | 400 kts | 349° |
| 2026-04-30 14:34 | 31.10314 | -81.42760 | 34942 ft | 400 kts | 349° |
| 2026-04-30 14:35 | 31.18643 | -81.43201 | 34941 ft | 400 kts | 349° |
| 2026-04-30 14:36 | 31.24191 | -81.43255 | 34993 ft | 410 kts | 358° |
| 2026-04-30 14:36 | 31.27012 | -81.42514 | 34948 ft | 423 kts | 8° |
| 2026-04-30 14:36 | 31.29757 | -81.41141 | 34942 ft | 432 kts | 14° |
| 2026-04-30 14:37 | 31.35206 | -81.38172 | 34936 ft | 432 kts | 14° |
| 2026-04-30 14:37 | 31.40669 | -81.35200 | 34939 ft | 433 kts | 14° |
| 2026-04-30 14:38 | 31.46143 | -81.32229 | 34945 ft | 434 kts | 14° |
| 2026-04-30 14:38 | 31.51622 | -81.29254 | 34975 ft | 434 kts | 13° |
| 2026-04-30 14:39 | 31.57104 | -81.26267 | 34957 ft | 435 kts | 13° |
| 2026-04-30 14:39 | 31.62587 | -81.23269 | 34954 ft | 435 kts | 13° |
| 2026-04-30 14:40 | 31.70786 | -81.18803 | 34936 ft | 435 kts | 13° |
| 2026-04-30 14:40 | 31.76279 | -81.15807 | 34927 ft | 435 kts | 13° |
| 2026-04-30 14:41 | 31.81773 | -81.12795 | 34927 ft | 437 kts | 13° |
| 2026-04-30 14:41 | 31.87282 | -81.09765 | 34906 ft | 437 kts | 13° |
| 2026-04-30 14:42 | 31.92799 | -81.06742 | 34892 ft | 438 kts | 13° |
| 2026-04-30 14:42 | 31.98324 | -81.03707 | 34889 ft | 438 kts | 13° |
| 2026-04-30 14:43 | 32.03845 | -81.00652 | 34934 ft | 439 kts | 13° |
| 2026-04-30 14:43 | 32.09386 | -80.97548 | 34909 ft | 441 kts | 13° |
| 2026-04-30 14:44 | 32.14936 | -80.94426 | 34926 ft | 442 kts | 13° |
| 2026-04-30 14:44 | 32.20468 | -80.91324 | 34934 ft | 443 kts | 13° |
| 2026-04-30 14:45 | 32.26043 | -80.88197 | 34932 ft | 444 kts | 14° |
| 2026-04-30 14:45 | 32.31618 | -80.85060 | 34951 ft | 445 kts | 14° |
| 2026-04-30 14:46 | 32.37220 | -80.81908 | 34917 ft | 447 kts | 14° |
| 2026-04-30 14:46 | 32.41892 | -80.79271 | 34916 ft | 448 kts | 14° |
| 2026-04-30 14:47 | 32.48477 | -80.75544 | 34918 ft | 449 kts | 14° |
| 2026-04-30 14:47 | 32.54123 | -80.72353 | 34924 ft | 450 kts | 14° |
| 2026-04-30 14:48 | 32.59781 | -80.69150 | 34925 ft | 452 kts | 14° |
| 2026-04-30 14:48 | 32.65426 | -80.65953 | 34918 ft | 453 kts | 14° |
| 2026-04-30 14:49 | 32.71023 | -80.62369 | 34907 ft | 470 kts | 26° |
| 2026-04-30 14:49 | 32.73549 | -80.59781 | 34908 ft | 486 kts | 36° |
| 2026-04-30 14:49 | 32.75896 | -80.56894 | 34912 ft | 487 kts | 36° |
| 2026-04-30 14:50 | 32.82983 | -80.48199 | 34913 ft | 490 kts | 36° |
| 2026-04-30 14:51 | 32.90120 | -80.39435 | 34889 ft | 493 kts | 36° |
| 2026-04-30 14:52 | 32.96488 | -80.31590 | 34895 ft | 495 kts | 36° |
| 2026-04-30 14:52 | 33.04449 | -80.21764 | 34902 ft | 496 kts | 36° |
| 2026-04-30 14:53 | 33.11642 | -80.12861 | 34923 ft | 497 kts | 37° |
| 2026-04-30 14:54 | 33.20422 | -80.01962 | 34932 ft | 497 kts | 37° |
| 2026-04-30 14:55 | 33.27590 | -79.93050 | 34945 ft | 498 kts | 37° |
| 2026-04-30 14:56 | 33.37210 | -79.81023 | 34905 ft | 501 kts | 37° |
| 2026-04-30 14:57 | 33.44450 | -79.71962 | 34912 ft | 502 kts | 37° |
| 2026-04-30 14:58 | 33.54113 | -79.59827 | 34940 ft | 504 kts | 36° |
| 2026-04-30 14:58 | 33.61389 | -79.50666 | 34909 ft | 507 kts | 36° |
| 2026-04-30 15:00 | 33.73503 | -79.35331 | 34893 ft | 508 kts | 37° |
| 2026-04-30 15:01 | 33.83244 | -79.22986 | 34962 ft | 509 kts | 36° |
| 2026-04-30 15:01 | 33.90541 | -79.13698 | 34971 ft | 510 kts | 36° |
| 2026-04-30 15:02 | 33.95407 | -79.07484 | 34960 ft | 510 kts | 36° |
| 2026-04-30 15:03 | 34.07519 | -78.91983 | 34890 ft | 506 kts | 37° |
| 2026-04-30 15:04 | 34.19561 | -78.76504 | 34887 ft | 507 kts | 37° |
| 2026-04-30 15:06 | 34.31663 | -78.60880 | 34974 ft | 509 kts | 37° |
| 2026-04-30 15:06 | 34.36958 | -78.55452 | 34955 ft | 495 kts | 28° |
| 2026-04-30 15:07 | 34.42401 | -78.50313 | 34942 ft | 495 kts | 28° |
| 2026-04-30 15:08 | 34.53297 | -78.40010 | 34924 ft | 499 kts | 28° |
| 2026-04-30 15:09 | 34.67022 | -78.26975 | 34929 ft | 504 kts | 28° |
| 2026-04-30 15:10 | 34.78106 | -78.16385 | 34936 ft | 509 kts | 28° |
| 2026-04-30 15:11 | 34.94903 | -78.00323 | 34976 ft | 513 kts | 28° |
| 2026-04-30 15:13 | 35.08960 | -77.86856 | 34954 ft | 514 kts | 28° |
| 2026-04-30 15:14 | 35.28642 | -77.67898 | 34931 ft | 515 kts | 28° |
| 2026-04-30 15:17 | 35.53933 | -77.43362 | 34928 ft | 516 kts | 29° |
| 2026-04-30 15:19 | 35.76370 | -77.21417 | 34904 ft | 517 kts | 30° |